Time;durP1;ratioP1;P1;durP2;ratioP2;P2;SDS_P1;SDS_P2;PMS_P1;PMS_P2;Temp;Humidity;BMP_temperature;BMP_pressure;BME280_temperature;BME280_humidity;BME280_pressure;Samples;Min_cycle;Max_cycle;Signal;HPM_P1;HPM_P2
2023/10/06 00:01:21;;;;;;;17.45;7.40;;;;;8.10;97353.00;;;;8431635;28;20228;-67
2023/10/06 00:05:29;;;;;;;22.00;7.63;;;;;8.00;97348.00;;;;8432425;28;20255;-66
2023/10/06 00:09:32;;;;;;;21.70;7.30;;;;;8.00;97349.00;;;;8430234;28;20200;-66
2023/10/06 00:13:35;;;;;;;17.60;6.53;;;;;8.00;97353.00;;;;8433062;28;20604;-66
2023/10/06 00:17:39;;;;;;;18.87;7.70;;;;;7.90;97351.00;;;;8432310;28;20187;-67
2023/10/06 00:21:46;;;;;;;60.20;7.90;;;;;7.80;97354.00;;;;8433349;28;20199;-66
2023/10/06 00:25:52;;;;;;;20.75;7.40;;;;;7.70;97353.00;;;;8432133;28;20211;-66
2023/10/06 00:29:56;;;;;;;97.23;10.43;;;;;7.70;97356.00;;;;8432594;28;20199;-67
2023/10/06 00:34:00;;;;;;;17.90;7.53;;;;;7.70;97352.00;;;;8431249;28;20241;-66
2023/10/06 00:38:12;;;;;;;19.97;6.87;;;;;7.60;97345.00;;;;8431778;28;20231;-66
2023/10/06 00:42:19;;;;;;;23.37;7.80;;;;;7.60;97352.00;;;;8431044;28;20195;-66
2023/10/06 00:46:23;;;;;;;20.30;7.40;;;;;7.70;97350.00;;;;8432497;28;20616;-66
2023/10/06 00:50:32;;;;;;;23.20;7.87;;;;;7.60;97346.00;;;;8430582;28;20195;-66
2023/10/06 00:54:37;;;;;;;24.07;8.00;;;;;7.40;97345.00;;;;8432840;28;20497;-66
2023/10/06 00:58:41;;;;;;;24.00;7.10;;;;;7.30;97346.00;;;;8431549;28;20231;-67
2023/10/06 01:02:44;;;;;;;23.97;8.00;;;;;7.30;97344.00;;;;8431476;28;20272;-66
2023/10/06 01:06:48;;;;;;;23.97;7.27;;;;;7.10;97345.00;;;;8431095;28;20229;-66
2023/10/06 01:11:06;;;;;;;17.97;6.97;;;;;7.00;97343.00;;;;8431147;28;20278;-66
2023/10/06 01:15:16;;;;;;;23.77;6.53;;;;;6.90;97340.00;;;;8431671;28;20655;-66
2023/10/06 01:19:27;;;;;;;19.57;6.50;;;;;6.80;97347.00;;;;8429281;28;20220;-66
2023/10/06 01:23:33;;;;;;;21.17;6.30;;;;;6.70;97347.00;;;;8431811;28;20596;-66
2023/10/06 01:27:36;;;;;;;108.53;9.53;;;;;6.70;97349.00;;;;8431535;28;20180;-66
2023/10/06 01:31:40;;;;;;;96.17;8.97;;;;;6.70;97341.00;;;;8431595;28;20640;-66
2023/10/06 01:35:45;;;;;;;117.30;11.53;;;;;6.60;97338.00;;;;8430543;28;20870;-66
2023/10/06 01:39:51;;;;;;;27.40;8.00;;;;;6.50;97336.00;;;;8431088;28;20235;-66
2023/10/06 01:43:54;;;;;;;50.50;8.80;;;;;6.60;97340.00;;;;8431177;28;20230;-66
2023/10/06 01:48:17;;;;;;;229.73;13.30;;;;;6.60;97331.00;;;;8431400;28;20555;-67
2023/10/06 01:52:21;;;;;;;33.30;7.27;;;;;6.50;97337.00;;;;8431500;28;20191;-67
2023/10/06 01:56:26;;;;;;;34.10;8.63;;;;;6.50;97339.00;;;;8430270;28;20286;-66
2023/10/06 02:00:31;;;;;;;23.70;8.33;;;;;6.40;97340.00;;;;8431523;28;20231;-67
2023/10/06 02:04:39;;;;;;;20.00;7.57;;;;;6.40;97345.00;;;;8429254;28;20261;-67
2023/10/06 02:08:49;;;;;;;18.33;6.90;;;;;6.40;97342.00;;;;8437535;28;20532;-67
2023/10/06 02:12:55;;;;;;;24.13;7.03;;;;;6.30;97343.00;;;;8435464;28;20667;-67
2023/10/06 02:17:05;;;;;;;25.50;7.13;;;;;6.20;97331.00;;;;8436271;28;20203;-67
2023/10/06 02:21:14;;;;;;;23.10;7.53;;;;;6.20;97327.00;;;;8436487;28;20270;-67
2023/10/06 02:25:17;;;;;;;31.50;7.77;;;;;6.10;97325.00;;;;8436100;28;20219;-67
2023/10/06 02:29:23;;;;;;;35.20;8.77;;;;;6.00;97321.00;;;;8435786;28;20223;-67
2023/10/06 02:33:26;;;;;;;28.17;6.80;;;;;6.00;97315.00;;;;8435882;28;20202;-67
2023/10/06 02:37:32;;;;;;;48.20;7.63;;;;;6.00;97322.00;;;;8436196;28;20591;-67
2023/10/06 02:41:36;;;;;;;118.90;11.87;;;;;6.10;97319.00;;;;8435569;28;20190;-67
2023/10/06 02:45:41;;;;;;;98.50;11.10;;;;;6.20;97316.00;;;;8435555;28;20215;-67
2023/10/06 02:49:48;;;;;;;242.90;15.30;;;;;6.10;97321.00;;;;8435241;28;20192;-66
2023/10/06 02:53:52;;;;;;;65.23;8.40;;;;;6.10;97324.00;;;;8435898;28;20184;-66
2023/10/06 02:57:57;;;;;;;29.17;6.43;;;;;6.10;97324.00;;;;8435105;28;20373;-67
2023/10/06 03:02:06;;;;;;;33.73;6.17;;;;;6.20;97327.00;;;;8450250;22;20593;-66
2023/10/06 03:06:09;;;;;;;158.87;11.50;;;;;6.20;97318.00;;;;8329668;28;20232;-66
2023/10/06 03:10:16;;;;;;;110.80;10.10;;;;;6.10;97328.00;;;;8343026;28;20205;-66
2023/10/06 03:14:24;;;;;;;98.83;11.23;;;;;6.10;97334.00;;;;8340234;28;20209;-66
2023/10/06 03:18:30;;;;;;;63.53;8.43;;;;;6.10;97325.00;;;;8327236;28;20194;-66
2023/10/06 03:22:37;;;;;;;32.43;8.07;;;;;6.10;97331.00;;;;8347630;28;20211;-66
2023/10/06 03:26:44;;;;;;;45.90;8.30;;;;;6.00;97330.00;;;;8340468;28;20208;-66
2023/10/06 03:30:49;;;;;;;73.40;10.07;;;;;6.00;97331.00;;;;8345382;28;20220;-66
2023/10/06 03:34:54;;;;;;;47.17;9.50;;;;;6.00;97338.00;;;;8329022;28;20204;-66
2023/10/06 03:39:06;;;;;;;95.10;10.50;;;;;5.90;97328.00;;;;8347388;28;20258;-66
2023/10/06 03:43:12;;;;;;;132.27;12.20;;;;;5.90;97327.00;;;;8319101;28;20197;-66
2023/10/06 03:47:15;;;;;;;40.50;8.73;;;;;5.90;97333.00;;;;8337799;28;20278;-66
2023/10/06 03:51:21;;;;;;;101.33;10.03;;;;;5.90;97328.00;;;;8330429;28;20201;-66
2023/10/06 03:55:24;;;;;;;64.27;9.03;;;;;5.90;97324.00;;;;8337817;28;20205;-66
2023/10/06 03:59:27;;;;;;;46.23;9.20;;;;;5.90;97331.00;;;;8343691;28;20756;-66
2023/10/06 04:03:31;;;;;;;59.60;8.77;;;;;6.00;97321.00;;;;8336348;28;20258;-67
2023/10/06 04:07:36;;;;;;;210.83;17.23;;;;;6.00;97325.00;;;;8348352;28;20228;-67
2023/10/06 04:11:42;;;;;;;302.67;16.87;;;;;5.90;97323.00;;;;8351939;28;20288;-67
2023/10/06 04:15:49;;;;;;;28.67;6.67;;;;;5.80;97333.00;;;;8348032;28;20204;-67
2023/10/06 04:19:52;;;;;;;34.13;7.73;;;;;5.80;97321.00;;;;8347995;28;20562;-68
2023/10/06 04:23:56;;;;;;;17.93;6.47;;;;;5.80;97328.00;;;;8342373;28;20322;-67
2023/10/06 04:27:59;;;;;;;13.23;6.10;;;;;5.70;97340.00;;;;8339589;28;20235;-67
2023/10/06 04:32:03;;;;;;;13.70;6.07;;;;;5.60;97330.00;;;;8336154;28;20207;-67
2023/10/06 04:36:08;;;;;;;14.93;6.47;;;;;5.50;97332.00;;;;8337929;28;20192;-67
2023/10/06 04:40:17;;;;;;;17.10;5.83;;;;;5.40;97330.00;;;;8324735;28;20855;-67
2023/10/06 04:44:20;;;;;;;12.53;6.60;;;;;5.30;97326.00;;;;8321714;28;20234;-67
2023/10/06 04:48:23;;;;;;;12.70;5.40;;;;;5.40;97316.00;;;;8340518;28;20531;-67
2023/10/06 04:52:27;;;;;;;10.37;5.67;;;;;5.40;97314.00;;;;8337906;28;20462;-67
2023/10/06 04:56:32;;;;;;;18.77;6.73;;;;;5.30;97316.00;;;;8338077;28;20728;-67
2023/10/06 05:00:35;;;;;;;18.03;6.73;;;;;5.20;97317.00;;;;8340035;28;20833;-67
2023/10/06 05:04:39;;;;;;;15.17;6.63;;;;;5.10;97312.00;;;;8335169;28;20902;-67
2023/10/06 05:08:46;;;;;;;13.20;6.73;;;;;5.00;97314.00;;;;8351845;28;20942;-67
2023/10/06 05:12:52;;;;;;;20.63;7.63;;;;;5.00;97313.00;;;;8336542;28;20204;-67
2023/10/06 05:16:57;;;;;;;16.43;6.83;;;;;5.00;97322.00;;;;8337433;28;20295;-66
2023/10/06 05:21:01;;;;;;;45.27;8.63;;;;;5.00;97332.00;;;;8334121;28;20286;-67
2023/10/06 05:25:05;;;;;;;108.07;10.83;;;;;5.00;97340.00;;;;8339153;28;20984;-67
2023/10/06 05:29:14;;;;;;;54.70;9.93;;;;;5.00;97342.00;;;;8331983;28;20718;-67
2023/10/06 05:33:17;;;;;;;134.10;13.27;;;;;5.10;97347.00;;;;8334884;28;20696;-67
2023/10/06 05:37:20;;;;;;;46.80;7.37;;;;;5.10;97354.00;;;;8346654;28;20201;-67
2023/10/06 05:41:31;;;;;;;85.20;10.47;;;;;5.20;97344.00;;;;8346378;28;20192;-67
2023/10/06 05:45:35;;;;;;;183.93;14.60;;;;;5.20;97341.00;;;;8361155;28;20237;-67
2023/10/06 05:49:47;;;;;;;85.17;10.77;;;;;5.10;97335.00;;;;8352959;28;20197;-67
2023/10/06 05:53:51;;;;;;;156.17;12.17;;;;;5.10;97355.00;;;;8347407;28;20204;-67
2023/10/06 05:57:55;;;;;;;138.60;12.53;;;;;5.10;97351.00;;;;8350985;28;20833;-67
2023/10/06 06:02:02;;;;;;;23.33;7.57;;;;;5.20;97352.00;;;;8356250;28;20235;-67
2023/10/06 06:06:09;;;;;;;55.63;11.73;;;;;5.30;97354.00;;;;8356372;28;20714;-66
2023/10/06 06:10:14;;;;;;;35.17;10.47;;;;;5.40;97356.00;;;;8350841;28;20201;-67
2023/10/06 06:14:20;;;;;;;26.73;9.33;;;;;5.60;97352.00;;;;8349671;28;20315;-67
2023/10/06 06:18:27;;;;;;;22.93;8.10;;;;;5.70;97361.00;;;;8355394;28;20208;-67
2023/10/06 06:22:30;;;;;;;22.03;8.10;;;;;5.90;97361.00;;;;8351096;28;20242;-67
2023/10/06 06:26:33;;;;;;;46.80;8.77;;;;;6.10;97378.00;;;;8349288;28;20307;-67
2023/10/06 06:30:39;;;;;;;53.97;18.10;;;;;6.20;97376.00;;;;8344323;28;20848;-65
2023/10/06 06:34:44;;;;;;;42.87;13.83;;;;;6.40;97375.00;;;;8355152;28;20204;-65
2023/10/06 06:38:48;;;;;;;29.30;10.10;;;;;6.60;97373.00;;;;8346592;28;20193;-65
2023/10/06 06:42:52;;;;;;;35.27;12.37;;;;;6.80;97379.00;;;;8351271;28;20633;-65
2023/10/06 06:46:55;;;;;;;24.97;8.77;;;;;6.90;97382.00;;;;8348022;28;20286;-65
2023/10/06 06:51:00;;;;;;;28.73;9.83;;;;;7.10;97379.00;;;;8349308;28;20216;-65
2023/10/06 06:55:05;;;;;;;24.57;9.47;;;;;7.20;97382.00;;;;8345819;28;20215;-64
2023/10/06 06:59:09;;;;;;;24.43;8.77;;;;;7.50;97378.00;;;;8347480;28;20664;-64
2023/10/06 07:03:14;;;;;;;24.13;9.23;;;;;7.60;97388.00;;;;8346157;28;20216;-65
2023/10/06 07:07:19;;;;;;;25.93;9.20;;;;;7.70;97392.00;;;;8344680;28;20306;-65
2023/10/06 07:11:22;;;;;;;22.47;8.73;;;;;7.90;97387.00;;;;8354683;28;20762;-65
2023/10/06 07:15:29;;;;;;;19.40;8.47;;;;;8.10;97392.00;;;;8354351;28;20732;-65
2023/10/06 07:19:32;;;;;;;21.97;7.93;;;;;8.30;97390.00;;;;8348564;28;20204;-65
2023/10/06 07:23:38;;;;;;;19.80;8.50;;;;;8.60;97390.00;;;;8347890;28;20232;-66
2023/10/06 07:27:41;;;;;;;17.20;7.93;;;;;8.70;97387.00;;;;8350635;28;20616;-66
2023/10/06 07:31:48;;;;;;;17.10;7.37;;;;;8.90;97384.00;;;;8348540;28;20208;-66
2023/10/06 07:35:53;;;;;;;18.37;8.00;;;;;9.10;97391.00;;;;8341240;28;20810;-67
2023/10/06 07:40:02;;;;;;;19.42;8.55;;;;;9.20;97383.00;;;;8345346;28;20236;-67
2023/10/06 07:44:06;;;;;;;25.60;9.40;;;;;9.50;97378.00;;;;8343758;28;20240;-67
2023/10/06 07:48:10;;;;;;;22.43;9.57;;;;;9.90;97369.00;;;;8348870;28;20223;-67
2023/10/06 07:52:13;;;;;;;42.22;11.55;;;;;10.10;97374.00;;;;8354046;28;20201;-67
2023/10/06 07:56:18;;;;;;;28.35;11.20;;;;;10.40;97362.00;;;;8352118;28;20204;-67
2023/10/06 08:00:28;;;;;;;28.08;10.15;;;;;10.50;97362.00;;;;8347754;28;20301;-67
2023/10/06 08:04:32;;;;;;;32.33;10.85;;;;;10.80;97363.00;;;;8347582;28;20225;-67
2023/10/06 08:08:37;;;;;;;33.70;11.07;;;;;11.10;97370.00;;;;8351052;28;20742;-68
2023/10/06 08:12:43;;;;;;;28.75;10.50;;;;;11.40;97365.00;;;;8356617;28;20646;-67
2023/10/06 08:16:46;;;;;;;33.30;10.32;;;;;11.60;97377.00;;;;8347158;28;20204;-67
2023/10/06 08:20:49;;;;;;;22.58;8.85;;;;;11.90;97388.00;;;;8341830;28;20203;-68
2023/10/06 08:24:53;;;;;;;20.02;9.65;;;;;12.20;97393.00;;;;8346077;28;20285;-65
2023/10/06 08:28:57;;;;;;;30.85;8.32;;;;;12.50;97389.00;;;;8344922;28;20231;-65
2023/10/06 08:33:02;;;;;;;24.05;8.48;;;;;12.80;97399.00;;;;8341007;28;20204;-65
2023/10/06 08:37:10;;;;;;;20.92;7.38;;;;;13.10;97403.00;;;;8353816;28;20280;-65
2023/10/06 08:41:15;;;;;;;22.50;6.82;;;;;13.40;97400.00;;;;8339729;28;20201;-66
2023/10/06 08:45:22;;;;;;;19.65;6.82;;;;;13.70;97411.00;;;;8340538;28;20213;-65
2023/10/06 08:49:26;;;;;;;20.55;5.60;;;;;14.00;97410.00;;;;8344142;28;20294;-66
2023/10/06 08:53:37;;;;;;;15.07;5.53;;;;;14.30;97412.00;;;;8346974;28;20738;-66
2023/10/06 08:57:45;;;;;;;11.73;4.35;;;;;14.50;97403.00;;;;8332577;28;20767;-65
2023/10/06 09:01:52;;;;;;;15.95;5.00;;;;;14.90;97396.00;;;;8353933;28;20645;-66
2023/10/06 09:05:56;;;;;;;14.07;4.82;;;;;15.00;97395.00;;;;8344771;28;20204;-64
2023/10/06 09:10:01;;;;;;;14.32;4.68;;;;;15.20;97406.00;;;;8344641;28;20291;-64
2023/10/06 09:14:08;;;;;;;17.20;5.35;;;;;15.40;97390.00;;;;8344976;28;20335;-64
2023/10/06 09:18:19;;;;;;;11.85;4.20;;;;;15.70;97404.00;;;;8337852;28;20197;-64
2023/10/06 09:22:28;;;;;;;18.58;4.55;;;;;16.10;97400.00;;;;8344853;28;20527;-64
2023/10/06 09:26:31;;;;;;;12.82;4.95;;;;;16.50;97397.00;;;;8344047;28;20775;-65
2023/10/06 09:30:49;;;;;;;12.13;4.65;;;;;16.90;97402.00;;;;8340788;28;20197;-64
2023/10/06 09:34:57;;;;;;;10.20;4.07;;;;;17.30;97389.00;;;;8335980;28;20193;-66
2023/10/06 09:39:04;;;;;;;13.32;4.97;;;;;17.70;97373.00;;;;8348629;28;20282;-65
2023/10/06 09:43:08;;;;;;;11.73;3.72;;;;;18.00;97364.00;;;;8343987;28;20204;-65
2023/10/06 09:47:12;;;;;;;7.38;4.22;;;;;18.40;97377.00;;;;8342343;28;20233;-64
2023/10/06 09:51:19;;;;;;;14.90;4.30;;;;;18.70;97372.00;;;;8346383;28;20212;-64
2023/10/06 09:55:22;;;;;;;9.45;3.70;;;;;18.60;97371.00;;;;8342408;28;20279;-64
2023/10/06 09:59:26;;;;;;;9.52;3.92;;;;;18.90;97360.00;;;;8343296;28;20196;-63
2023/10/06 10:03:33;;;;;;;8.32;3.35;;;;;19.70;97367.00;;;;8334939;28;20235;-64
2023/10/06 10:07:40;;;;;;;7.97;3.72;;;;;20.30;97364.00;;;;8344906;28;20216;-63
2023/10/06 10:11:48;;;;;;;9.95;3.40;;;;;20.90;97363.00;;;;8355432;28;20231;-64
2023/10/06 10:16:03;;;;;;;9.15;3.55;;;;;21.40;97365.00;;;;8335733;28;20901;-63
2023/10/06 10:20:09;;;;;;;13.05;3.95;;;;;21.90;97353.00;;;;8343453;28;20205;-64
2023/10/06 10:24:19;;;;;;;9.35;3.90;;;;;22.10;97355.00;;;;8348048;28;20290;-63
2023/10/06 10:28:44;;;;;;;12.13;3.75;;;;;22.40;97355.00;;;;8364360;28;20216;-63
2023/10/06 10:32:54;;;;;;;11.60;4.55;;;;;22.20;97360.00;;;;8352373;28;20195;-63
2023/10/06 10:37:16;;;;;;;7.80;3.60;;;;;21.80;97353.00;;;;8348718;28;20200;-65
2023/10/06 10:41:26;;;;;;;9.10;4.10;;;;;21.30;97334.00;;;;8349118;28;20955;-65
2023/10/06 10:45:31;;;;;;;10.57;4.25;;;;;21.10;97326.00;;;;8343492;28;20743;-65
2023/10/06 10:49:35;;;;;;;10.57;4.45;;;;;21.00;97310.00;;;;8347018;28;20923;-65
2023/10/06 10:53:41;;;;;;;8.93;3.97;;;;;21.10;97311.00;;;;8344565;28;21027;-64
2023/10/06 10:57:46;;;;;;;8.25;3.80;;;;;21.10;97316.00;;;;8347214;28;20197;-64
2023/10/06 11:01:51;;;;;;;12.90;4.50;;;;;21.20;97313.00;;;;8346193;28;20324;-65
2023/10/06 11:05:56;;;;;;;8.93;3.75;;;;;21.40;97311.00;;;;8345442;28;20271;-64
2023/10/06 11:09:59;;;;;;;8.85;3.92;;;;;21.60;97301.00;;;;8346304;28;20248;-65
2023/10/06 11:14:05;;;;;;;6.18;3.30;;;;;21.60;97295.00;;;;8347542;28;22424;-65
2023/10/06 11:18:09;;;;;;;13.82;3.38;;;;;21.80;97283.00;;;;8350650;28;20862;-64
2023/10/06 11:22:14;;;;;;;6.70;3.25;;;;;21.90;97276.00;;;;8361521;28;20265;-65
2023/10/06 11:26:27;;;;;;;9.30;3.35;;;;;22.00;97265.00;;;;8345232;28;20577;-65
2023/10/06 11:30:33;;;;;;;5.78;3.00;;;;;22.20;97265.00;;;;8347344;28;20224;-65
2023/10/06 11:34:37;;;;;;;7.18;3.22;;;;;22.40;97255.00;;;;8346313;28;20192;-65
2023/10/06 11:38:40;;;;;;;10.93;3.88;;;;;22.40;97252.00;;;;8349005;28;20232;-65
2023/10/06 11:42:43;;;;;;;8.48;3.65;;;;;22.40;97243.00;;;;8342016;28;20200;-64
2023/10/06 11:46:58;;;;;;;9.02;3.25;;;;;22.30;97234.00;;;;8345723;28;20283;-64
2023/10/06 11:51:02;;;;;;;12.35;4.00;;;;;22.10;97252.00;;;;8343677;28;20587;-64
2023/10/06 11:55:11;;;;;;;12.50;4.20;;;;;22.00;97253.00;;;;8340343;28;20254;-64
2023/10/06 11:59:20;;;;;;;10.45;3.60;;;;;22.00;97246.00;;;;8342985;28;20243;-64
2023/10/06 12:03:38;;;;;;;9.68;4.30;;;;;22.00;97241.00;;;;8344273;28;20232;-65
2023/10/06 12:07:41;;;;;;;8.75;4.28;;;;;22.00;97237.00;;;;8347755;28;20298;-64
2023/10/06 12:11:44;;;;;;;17.92;4.32;;;;;22.00;97234.00;;;;8345476;28;20950;-64
2023/10/06 12:15:48;;;;;;;17.70;4.82;;;;;22.20;97228.00;;;;8344919;28;20941;-64
2023/10/06 12:19:52;;;;;;;7.15;4.07;;;;;22.20;97230.00;;;;8346741;28;20201;-64
2023/10/06 12:23:55;;;;;;;17.25;5.13;;;;;22.30;97223.00;;;;8348306;28;20197;-64
2023/10/06 12:28:00;;;;;;;11.60;4.63;;;;;22.30;97233.00;;;;8345612;28;20232;-64
2023/10/06 12:32:03;;;;;;;8.38;4.15;;;;;22.20;97231.00;;;;8341744;28;20196;-64
2023/10/06 12:36:09;;;;;;;11.95;4.15;;;;;22.20;97231.00;;;;8343763;28;20208;-64
2023/10/06 12:40:14;;;;;;;9.32;4.30;;;;;22.20;97219.00;;;;8346187;28;20580;-64
2023/10/06 12:44:17;;;;;;;14.35;6.43;;;;;22.20;97219.00;;;;8342675;28;20220;-64
2023/10/06 12:48:20;;;;;;;12.00;5.60;;;;;22.10;97220.00;;;;8345895;28;20756;-64
2023/10/06 12:52:25;;;;;;;13.15;5.22;;;;;22.00;97207.00;;;;8344512;28;20207;-64
2023/10/06 12:56:29;;;;;;;11.93;4.97;;;;;22.00;97207.00;;;;8344348;28;20197;-64
2023/10/06 13:00:32;;;;;;;11.70;5.20;;;;;22.00;97205.00;;;;8342087;28;20201;-64
2023/10/06 13:04:35;;;;;;;12.00;4.95;;;;;21.90;97207.00;;;;8341501;28;20229;-64
2023/10/06 13:08:40;;;;;;;14.52;5.75;;;;;21.90;97212.00;;;;8345616;28;20236;-64
2023/10/06 13:12:43;;;;;;;13.02;5.60;;;;;21.90;97201.00;;;;8343379;28;20762;-64
2023/10/06 13:16:47;;;;;;;14.38;5.85;;;;;21.90;97188.00;;;;8342178;28;20197;-64
2023/10/06 13:20:50;;;;;;;11.95;4.70;;;;;22.00;97184.00;;;;8334963;28;20228;-63
2023/10/06 13:24:56;;;;;;;12.70;5.68;;;;;21.90;97185.00;;;;8338956;28;21156;-62
2023/10/06 13:28:59;;;;;;;17.88;6.88;;;;;21.70;97182.00;;;;8341772;28;20319;-62
2023/10/06 13:33:03;;;;;;;15.50;6.55;;;;;21.80;97177.00;;;;8344210;28;20215;-63
2023/10/06 13:37:07;;;;;;;14.07;5.78;;;;;21.80;97167.00;;;;8345405;28;20523;-63
2023/10/06 13:41:11;;;;;;;15.45;5.85;;;;;21.80;97171.00;;;;8346781;28;20203;-64
2023/10/06 13:45:17;;;;;;;12.55;5.40;;;;;21.80;97173.00;;;;8345731;28;20204;-64
2023/10/06 13:49:21;;;;;;;10.43;4.85;;;;;21.70;97161.00;;;;8343332;28;20231;-63
2023/10/06 13:53:25;;;;;;;13.40;5.18;;;;;21.70;97155.00;;;;8346333;28;20199;-64
2023/10/06 13:57:30;;;;;;;12.65;4.63;;;;;21.60;97155.00;;;;8348860;28;20227;-65
2023/10/06 14:01:34;;;;;;;11.57;4.65;;;;;21.70;97162.00;;;;8349452;28;20901;-64
2023/10/06 14:05:41;;;;;;;12.88;5.13;;;;;21.80;97151.00;;;;8348821;28;20201;-65
2023/10/06 14:09:44;;;;;;;11.10;4.55;;;;;21.90;97152.00;;;;8345337;28;20544;-65
2023/10/06 14:13:49;;;;;;;23.63;5.38;;;;;21.70;97152.00;;;;8346243;28;20251;-63
2023/10/06 14:17:53;;;;;;;10.25;5.18;;;;;21.70;97148.00;;;;8351684;28;20200;-63
2023/10/06 14:21:56;;;;;;;12.93;4.90;;;;;21.70;97151.00;;;;8347313;28;20207;-63
2023/10/06 14:26:03;;;;;;;10.63;5.50;;;;;21.90;97145.00;;;;8346207;28;20299;-63
2023/10/06 14:30:11;;;;;;;11.45;5.15;;;;;22.00;97144.00;;;;8349124;28;20231;-63
2023/10/06 14:34:36;;;;;;;8.75;4.60;;;;;22.00;97137.00;;;;8349938;28;20197;-63
2023/10/06 14:47:38;;;;;;;12.82;5.43;;;;;22.20;97139.00;;;;8350099;28;20214;-63
2023/10/06 14:51:43;;;;;;;10.65;4.88;;;;;22.10;97135.00;;;;8350797;28;20221;-64
2023/10/06 14:55:47;;;;;;;11.07;4.90;;;;;22.00;97133.00;;;;8349895;28;20201;-63
2023/10/06 14:59:51;;;;;;;10.90;4.80;;;;;21.90;97119.00;;;;8356929;28;20223;-64
2023/10/06 15:03:56;;;;;;;11.88;4.47;;;;;21.80;97115.00;;;;8359124;28;20255;-64
2023/10/06 15:07:59;;;;;;;13.13;4.90;;;;;21.70;97110.00;;;;8341221;28;20837;-64
2023/10/06 15:12:03;;;;;;;10.63;4.63;;;;;21.70;97109.00;;;;8354305;28;20212;-61
2023/10/06 15:16:07;;;;;;;9.93;5.00;;;;;21.60;97098.00;;;;8347298;28;20753;-62
2023/10/06 15:20:13;;;;;;;12.68;4.80;;;;;21.50;97092.00;;;;8358202;28;20581;-61
2023/10/06 15:24:17;;;;;;;12.20;5.38;;;;;21.30;97084.00;;;;8352807;28;20196;-64
2023/10/06 15:28:21;;;;;;;15.57;5.15;;;;;21.20;97088.00;;;;8356361;28;20342;-63
2023/10/06 15:32:44;;;;;;;15.40;5.63;;;;;21.10;97090.00;;;;8347828;28;20206;-63
2023/10/06 15:36:50;;;;;;;12.88;5.65;;;;;21.00;97088.00;;;;8345443;28;20876;-63
2023/10/06 15:41:07;;;;;;;10.68;5.07;;;;;20.80;97079.00;;;;8343772;28;20247;-63
2023/10/06 15:45:13;;;;;;;9.07;5.05;;;;;20.60;97078.00;;;;8336524;28;20215;-63
2023/10/06 15:49:17;;;;;;;8.88;4.55;;;;;20.40;97077.00;;;;8344377;28;20586;-63
2023/10/06 15:53:26;;;;;;;12.85;5.65;;;;;20.20;97085.00;;;;8351169;28;20275;-62
2023/10/06 15:57:29;;;;;;;9.05;4.47;;;;;20.00;97091.00;;;;8350112;28;20204;-63
2023/10/06 16:01:32;;;;;;;12.82;5.13;;;;;19.80;97097.00;;;;8346938;28;20754;-63
2023/10/06 16:05:36;;;;;;;12.88;4.97;;;;;19.60;97089.00;;;;8344512;28;20200;-63
2023/10/06 16:09:40;;;;;;;10.90;5.25;;;;;19.40;97085.00;;;;8355312;28;21008;-63
2023/10/06 16:13:44;;;;;;;13.65;5.13;;;;;19.20;97091.00;;;;8341246;28;20783;-63
2023/10/06 16:17:48;;;;;;;15.35;5.38;;;;;18.90;97089.00;;;;8343668;28;20208;-63
2023/10/06 16:21:53;;;;;;;15.05;5.65;;;;;18.60;97090.00;;;;8345037;28;20543;-63
2023/10/06 16:25:57;;;;;;;13.95;5.03;;;;;18.30;97097.00;;;;8344822;28;20288;-63
2023/10/06 16:30:00;;;;;;;11.05;4.75;;;;;17.90;97090.00;;;;8342462;28;20227;-63
2023/10/06 16:34:05;;;;;;;14.25;5.40;;;;;17.60;97096.00;;;;8345735;28;20303;-63
2023/10/06 16:38:09;;;;;;;14.07;4.88;;;;;17.30;97087.00;;;;8344189;28;20239;-63
2023/10/06 16:42:13;;;;;;;12.27;5.10;;;;;16.90;97098.00;;;;8335645;28;20228;-64
2023/10/06 16:46:17;;;;;;;17.25;5.05;;;;;16.50;97096.00;;;;8336723;28;20220;-62
2023/10/06 16:50:21;;;;;;;11.35;4.55;;;;;16.00;97092.00;;;;8341972;28;20685;-63
2023/10/06 16:54:26;;;;;;;14.68;5.70;;;;;15.70;97095.00;;;;8339768;28;20244;-64
2023/10/06 16:58:31;;;;;;;10.60;4.88;;;;;15.40;97098.00;;;;8341288;28;22155;-62
2023/10/06 17:02:35;;;;;;;10.35;5.00;;;;;15.10;97097.00;;;;8335092;28;20281;-63
2023/10/06 17:06:39;;;;;;;10.75;4.90;;;;;14.90;97103.00;;;;8341610;28;20612;-63
2023/10/06 17:10:43;;;;;;;13.88;5.57;;;;;14.70;97100.00;;;;8338876;28;20323;-64
2023/10/06 17:14:50;;;;;;;11.65;5.25;;;;;14.50;97097.00;;;;8338834;28;20193;-64
2023/10/06 17:18:53;;;;;;;14.15;5.03;;;;;14.40;97088.00;;;;8336907;28;20899;-64
2023/10/06 17:22:58;;;;;;;12.75;5.10;;;;;14.20;97100.00;;;;8342066;28;20629;-65
2023/10/06 17:27:01;;;;;;;15.05;5.93;;;;;14.00;97094.00;;;;8344629;28;20372;-64
2023/10/06 17:31:10;;;;;;;14.75;5.18;;;;;13.80;97087.00;;;;8339806;28;21027;-64
2023/10/06 17:35:15;;;;;;;13.85;5.43;;;;;13.60;97101.00;;;;8345185;28;20196;-69
2023/10/06 17:39:18;;;;;;;14.23;5.60;;;;;13.40;97107.00;;;;8347677;28;20204;-69
2023/10/06 17:43:23;;;;;;;12.30;5.78;;;;;13.40;97101.00;;;;8346568;28;20289;-68
2023/10/06 17:47:27;;;;;;;15.68;6.43;;;;;13.30;97102.00;;;;8347011;28;20280;-68
2023/10/06 17:51:31;;;;;;;15.35;7.32;;;;;13.20;97109.00;;;;8347497;28;20235;-68
2023/10/06 17:55:34;;;;;;;22.08;8.18;;;;;13.00;97098.00;;;;8346965;28;20341;-66
2023/10/06 17:59:38;;;;;;;25.92;8.23;;;;;12.90;97101.00;;;;8349270;28;20204;-66
2023/10/06 18:03:43;;;;;;;29.45;12.25;;;;;12.70;97102.00;;;;8342307;28;20233;-66
2023/10/06 18:07:46;;;;;;;26.33;10.18;;;;;12.60;97095.00;;;;8345552;28;20295;-65
2023/10/06 18:11:50;;;;;;;15.52;6.88;;;;;12.60;97099.00;;;;8352223;28;20285;-65
2023/10/06 18:16:13;;;;;;;18.75;7.90;;;;;12.50;97101.00;;;;8345310;28;20719;-64
2023/10/06 18:20:18;;;;;;;17.45;7.30;;;;;12.30;97101.00;;;;8348127;28;20208;-63
2023/10/06 18:24:22;;;;;;;17.15;7.15;;;;;12.20;97101.00;;;;8350438;28;20718;-63
2023/10/06 18:28:25;;;;;;;10.23;6.00;;;;;12.10;97103.00;;;;8366403;28;20220;-63
2023/10/06 18:32:29;;;;;;;18.55;6.85;;;;;12.00;97100.00;;;;8338007;28;20225;-65
2023/10/06 18:36:34;;;;;;;14.70;6.95;;;;;12.00;97095.00;;;;8342467;28;20221;-65
2023/10/06 18:40:37;;;;;;;14.57;7.00;;;;;12.00;97087.00;;;;8341353;28;20216;-64
2023/10/06 18:44:40;;;;;;;16.80;6.35;;;;;12.00;97078.00;;;;8343692;28;20206;-64
2023/10/06 18:48:43;;;;;;;16.98;6.28;;;;;11.90;97081.00;;;;8348395;28;20230;-64
2023/10/06 18:52:49;;;;;;;16.98;6.63;;;;;11.80;97082.00;;;;8350169;28;20709;-64
2023/10/06 18:56:52;;;;;;;14.25;6.90;;;;;11.70;97088.00;;;;8343965;28;20311;-64
2023/10/06 19:00:57;;;;;;;14.05;5.97;;;;;11.70;97098.00;;;;8341615;28;20299;-63
2023/10/06 19:05:03;;;;;;;17.17;7.40;;;;;11.60;97106.00;;;;8345417;28;20842;-64
2023/10/06 19:09:09;;;;;;;16.95;7.38;;;;;11.50;97110.00;;;;8342329;28;20319;-63
2023/10/06 19:13:15;;;;;;;17.20;7.35;;;;;11.40;97104.00;;;;8345067;28;20324;-63
2023/10/06 19:17:19;;;;;;;15.30;7.03;;;;;11.40;97101.00;;;;8339719;28;20201;-63
2023/10/06 19:21:23;;;;;;;21.58;7.85;;;;;11.40;97099.00;;;;8347421;28;20195;-64
2023/10/06 19:25:28;;;;;;;16.15;7.07;;;;;11.40;97098.00;;;;8343032;28;20203;-64
2023/10/06 19:29:31;;;;;;;17.85;8.15;;;;;11.30;97087.00;;;;8345796;28;20197;-64
2023/10/06 19:33:34;;;;;;;16.75;7.05;;;;;11.30;97092.00;;;;8350612;28;20272;-64
2023/10/06 19:37:39;;;;;;;13.68;5.82;;;;;11.20;97085.00;;;;8349443;28;20201;-64
2023/10/06 19:41:44;;;;;;;13.40;6.55;;;;;11.10;97083.00;;;;8337976;28;20223;-64
2023/10/06 19:45:47;;;;;;;28.05;8.25;;;;;11.10;97080.00;;;;8345885;28;20229;-64
2023/10/06 19:49:51;;;;;;;19.63;7.65;;;;;11.10;97080.00;;;;8348228;28;20231;-64
2023/10/06 19:53:56;;;;;;;16.75;7.40;;;;;11.00;97077.00;;;;8346366;28;20298;-64
2023/10/06 19:58:04;;;;;;;16.73;6.50;;;;;11.00;97078.00;;;;8341904;28;20202;-65
2023/10/06 20:02:09;;;;;;;21.38;7.70;;;;;10.90;97075.00;;;;8348072;28;20283;-63
2023/10/06 20:06:12;;;;;;;17.25;7.30;;;;;10.90;97091.00;;;;8346952;28;20308;-63
2023/10/06 20:10:21;;;;;;;21.30;7.90;;;;;10.90;97085.00;;;;8344069;28;20244;-63
2023/10/06 20:14:26;;;;;;;29.20;11.52;;;;;10.90;97092.00;;;;8341609;28;20954;-63
2023/10/06 20:18:29;;;;;;;23.83;8.25;;;;;10.90;97078.00;;;;8350231;28;20199;-65
2023/10/06 20:22:35;;;;;;;19.02;7.28;;;;;10.80;97086.00;;;;8344248;28;20206;-62
2023/10/06 20:26:38;;;;;;;15.10;6.75;;;;;10.70;97081.00;;;;8353913;28;20210;-63